Time;durP1;ratioP1;P1;durP2;ratioP2;P2;SDS_P1;SDS_P2;PMS_P1;PMS_P2;Temp;Humidity;BMP_temperature;BMP_pressure;BME280_temperature;BME280_humidity;BME280_pressure;Samples;Min_cycle;Max_cycle;Signal;HPM_P1;HPM_P2
2022/07/03 00:01:53;;;;;;;;;;;26.90;47.00;;;;;;5051895;28;19920;-67
2022/07/03 00:04:20;;;;;;;;;;;26.80;46.60;;;;;;5051971;28;20319;-64
2022/07/03 00:06:46;;;;;;;;;;;26.80;46.70;;;;;;5051770;28;19959;-67
2022/07/03 00:09:11;;;;;;;;;;;26.90;46.70;;;;;;5052035;28;19944;-66
2022/07/03 00:11:37;;;;;;;;;;;26.90;46.70;;;;;;5051714;28;19952;-65
2022/07/03 00:14:03;;;;;;;;;;;26.90;46.50;;;;;;5051916;28;20267;-66
2022/07/03 00:16:29;;;;;;;;;;;26.90;46.60;;;;;;5051679;28;20443;-64
2022/07/03 00:18:55;;;;;;;;;;;26.80;46.70;;;;;;5051840;28;19940;-65
2022/07/03 00:21:24;;;;;;;;;;;26.50;47.10;;;;;;5051835;28;20386;-64
2022/07/03 00:23:52;;;;;;;;;;;26.60;47.60;;;;;;5033883;28;20000;-65
2022/07/03 00:26:19;;;;;;;;;;;26.60;47.30;;;;;;5051849;28;19913;-64
2022/07/03 00:28:45;;;;;;;;;;;26.60;47.00;;;;;;5051644;28;19917;-64
2022/07/03 00:31:11;;;;;;;;;;;26.40;47.20;;;;;;5051780;28;20284;-64
2022/07/03 00:33:36;;;;;;;;;;;26.20;47.90;;;;;;5051727;28;19919;-65
2022/07/03 00:36:02;;;;;;;;;;;26.30;48.50;;;;;;5054335;28;19908;-65
2022/07/03 00:38:28;;;;;;;;;;;26.30;47.60;;;;;;5055652;28;20399;-66
2022/07/03 00:40:53;;;;;;;;;;;26.00;48.10;;;;;;5055316;28;20347;-64
2022/07/03 00:43:19;;;;;;;;;;;26.00;48.50;;;;;;5055368;28;19909;-65
2022/07/03 00:45:47;;;;;;;;;;;25.90;48.40;;;;;;5055357;28;19913;-63
2022/07/03 00:48:14;;;;;;;;;;;26.00;48.40;;;;;;5055199;28;19909;-64
2022/07/03 00:50:42;;;;;;;;;;;25.90;48.40;;;;;;5055342;28;19915;-63
2022/07/03 00:53:08;;;;;;;;;;;25.90;48.40;;;;;;5055112;28;19917;-64
2022/07/03 00:55:35;;;;;;;;;;;25.80;48.80;;;;;;5055175;28;20218;-65
2022/07/03 00:58:01;;;;;;;;;;;25.70;49.00;;;;;;5055104;28;19912;-64
2022/07/03 01:00:26;;;;;;;;;;;25.60;49.30;;;;;;5055180;28;19932;-64
2022/07/03 01:03:01;;;;;;;;;;;25.80;49.20;;;;;;5055216;28;19919;-65
2022/07/03 01:05:30;;;;;;;;;;;25.90;48.90;;;;;;5054867;28;19913;-66
2022/07/03 01:08:02;;;;;;;;;;;25.90;48.50;;;;;;5055112;28;19962;-66
2022/07/03 01:10:30;;;;;;;;;;;25.90;48.30;;;;;;5054924;28;19915;-66
2022/07/03 01:13:00;;;;;;;;;;;25.80;48.50;;;;;;5055171;28;19967;-65
2022/07/03 01:15:35;;;;;;;;;;;25.90;48.80;;;;;;5054850;28;19909;-64
2022/07/03 01:18:07;;;;;;;;;;;25.80;48.70;;;;;;5055846;28;19919;-64
2022/07/03 01:20:35;;;;;;;;;;;26.00;48.50;;;;;;5055800;28;19916;-63
2022/07/03 01:23:03;;;;;;;;;;;26.00;48.30;;;;;;5055735;28;19962;-66
2022/07/03 01:25:47;;;;;;;;;;;25.90;48.50;;;;;;5055256;28;19916;-65
2022/07/03 01:28:14;;;;;;;;;;;26.00;48.50;;;;;;5055655;28;19912;-65
2022/07/03 01:30:50;;;;;;;;;;;25.80;48.50;;;;;;5055516;28;19927;-64
2022/07/03 01:33:17;;;;;;;;;;;25.60;49.10;;;;;;5055659;28;19925;-65
2022/07/03 01:36:01;;;;;;;;;;;25.60;49.20;;;;;;5054537;28;19909;-66
2022/07/03 01:38:30;;;;;;;;;;;25.60;49.10;;;;;;5054454;28;19944;-65
2022/07/03 01:40:56;;;;;;;;;;;25.70;49.00;;;;;;5054247;28;19909;-65
2022/07/03 01:43:26;;;;;;;;;;;25.70;48.90;;;;;;5054143;28;19920;-65
2022/07/03 01:45:53;;;;;;;;;;;25.90;48.90;;;;;;5053934;28;19920;-64
2022/07/03 01:48:19;;;;;;;;;;;26.10;48.00;;;;;;5053645;28;20353;-64
2022/07/03 01:50:46;;;;;;;;;;;26.10;48.20;;;;;;5054247;28;19935;-66
2022/07/03 01:53:12;;;;;;;;;;;26.10;47.90;;;;;;5053931;28;20327;-62
2022/07/03 01:55:38;;;;;;;;;;;26.20;47.70;;;;;;5055141;28;20466;-65
2022/07/03 01:58:04;;;;;;;;;;;26.20;47.60;;;;;;5055734;28;19916;-67
2022/07/03 02:00:30;;;;;;;;;;;26.20;47.60;;;;;;5056465;28;19912;-64
2022/07/03 02:02:57;;;;;;;;;;;26.20;47.80;;;;;;5055193;28;19908;-68
2022/07/03 02:05:33;;;;;;;;;;;26.00;47.70;;;;;;5053971;28;20307;-64
2022/07/03 02:07:59;;;;;;;;;;;25.90;48.00;;;;;;5054152;28;19970;-63
2022/07/03 02:10:28;;;;;;;;;;;25.90;48.10;;;;;;5053856;28;20356;-67
2022/07/03 02:13:06;;;;;;;;;;;25.90;48.40;;;;;;5053759;28;19927;-65
2022/07/03 02:15:33;;;;;;;;;;;25.90;48.20;;;;;;5053946;28;20318;-66
2022/07/03 02:18:10;;;;;;;;;;;25.90;48.20;;;;;;5053637;28;19936;-64
2022/07/03 02:20:39;;;;;;;;;;;25.90;48.10;;;;;;5053635;28;19913;-64
2022/07/03 02:23:05;;;;;;;;;;;26.00;48.20;;;;;;5053626;28;19936;-65
2022/07/03 02:25:35;;;;;;;;;;;26.00;48.10;;;;;;5053388;28;20361;-64
2022/07/03 02:28:02;;;;;;;;;;;25.90;48.10;;;;;;5053440;28;19955;-67
2022/07/03 02:30:28;;;;;;;;;;;25.80;48.30;;;;;;5053235;28;19932;-64
2022/07/03 02:32:54;;;;;;;;;;;25.80;48.60;;;;;;5053360;28;19975;-65
2022/07/03 02:35:23;;;;;;;;;;;25.90;49.10;;;;;;5053270;28;19970;-67
2022/07/03 02:37:53;;;;;;;;;;;25.90;48.40;;;;;;5053107;28;19913;-66
2022/07/03 02:40:32;;;;;;;;;;;25.90;48.00;;;;;;5053269;28;20006;-66
2022/07/03 02:43:00;;;;;;;;;;;25.90;48.20;;;;;;5053076;28;19916;-65
2022/07/03 02:45:32;;;;;;;;;;;25.90;48.40;;;;;;5053336;28;19920;-65
2022/07/03 02:48:02;;;;;;;;;;;25.80;48.50;;;;;;5053021;28;19912;-65
2022/07/03 02:50:28;;;;;;;;;;;25.70;48.70;;;;;;5052998;28;20396;-66
2022/07/03 02:52:58;;;;;;;;;;;25.70;48.80;;;;;;5052945;28;19928;-66
2022/07/03 02:55:45;;;;;;;;;;;25.60;48.80;;;;;;5052669;28;19927;-65
2022/07/03 02:58:14;;;;;;;;;;;25.60;48.90;;;;;;5052146;28;20007;-62
2022/07/03 03:00:42;;;;;;;;;;;25.70;48.90;;;;;;5052842;28;19982;-65
2022/07/03 03:03:08;;;;;;;;;;;25.70;48.90;;;;;;5052816;28;19954;-64
2022/07/03 03:05:33;;;;;;;;;;;25.50;49.10;;;;;;5052616;28;19999;-64
2022/07/03 03:08:12;;;;;;;;;;;25.60;49.40;;;;;;5052841;28;20270;-66
2022/07/03 03:10:38;;;;;;;;;;;25.60;49.30;;;;;;5052605;28;20467;-64
2022/07/03 03:13:07;;;;;;;;;;;25.60;49.30;;;;;;5052549;28;19960;-65
2022/07/03 03:15:33;;;;;;;;;;;25.60;49.20;;;;;;5052439;28;19909;-64
2022/07/03 03:18:07;;;;;;;;;;;25.40;49.50;;;;;;5052586;28;20369;-63
2022/07/03 03:20:34;;;;;;;;;;;25.40;49.70;;;;;;5052519;28;19963;-65
2022/07/03 03:23:09;;;;;;;;;;;25.50;49.40;;;;;;5052460;28;19935;-65
2022/07/03 03:25:35;;;;;;;;;;;25.50;49.70;;;;;;5052288;28;20273;-65
2022/07/03 03:28:01;;;;;;;;;;;25.40;49.70;;;;;;5052320;28;19913;-64
2022/07/03 03:30:26;;;;;;;;;;;25.50;49.70;;;;;;5052238;28;19928;-63
2022/07/03 03:32:52;;;;;;;;;;;25.40;49.70;;;;;;5052285;28;19917;-64
2022/07/03 03:35:18;;;;;;;;;;;25.40;49.70;;;;;;5052355;28;19920;-64
2022/07/03 03:37:44;;;;;;;;;;;25.40;49.70;;;;;;5052176;28;19941;-67
2022/07/03 03:40:10;;;;;;;;;;;25.50;49.80;;;;;;5052249;28;20015;-64
2022/07/03 03:42:36;;;;;;;;;;;25.50;49.50;;;;;;5052080;28;20078;-66
2022/07/03 03:45:01;;;;;;;;;;;25.40;49.60;;;;;;5052217;28;20315;-68
2022/07/03 03:47:27;;;;;;;;;;;25.30;50.00;;;;;;5052139;28;20339;-64
2022/07/03 03:49:53;;;;;;;;;;;25.40;49.80;;;;;;5052076;28;19952;-65
2022/07/03 03:52:19;;;;;;;;;;;25.20;50.10;;;;;;5051970;28;19920;-65
2022/07/03 03:54:44;;;;;;;;;;;25.20;50.00;;;;;;5052000;28;19913;-62
2022/07/03 03:57:17;;;;;;;;;;;25.30;49.90;;;;;;5051982;28;20406;-64
2022/07/03 03:59:42;;;;;;;;;;;25.40;49.70;;;;;;5052001;28;19913;-65
2022/07/03 04:02:08;;;;;;;;;;;25.40;49.80;;;;;;5051955;28;19916;-63
2022/07/03 04:04:33;;;;;;;;;;;25.30;49.70;;;;;;5051997;28;19909;-66
2022/07/03 04:06:59;;;;;;;;;;;25.50;49.60;;;;;;5051761;28;19951;-67
2022/07/03 04:09:24;;;;;;;;;;;25.50;49.40;;;;;;5052199;28;20315;-66
2022/07/03 04:11:50;;;;;;;;;;;25.60;49.30;;;;;;5055890;28;19939;-66
2022/07/03 04:14:15;;;;;;;;;;;25.50;49.40;;;;;;5056066;28;19916;-67
2022/07/03 04:16:41;;;;;;;;;;;25.50;49.20;;;;;;5055836;28;19908;-67
2022/07/03 04:19:06;;;;;;;;;;;25.50;49.40;;;;;;5055848;28;19908;-64
2022/07/03 04:21:32;;;;;;;;;;;25.40;49.40;;;;;;5056038;28;19967;-66
2022/07/03 04:23:57;;;;;;;;;;;25.50;49.40;;;;;;5055819;28;19913;-65
2022/07/03 04:26:23;;;;;;;;;;;25.50;49.20;;;;;;5055692;28;19988;-66
2022/07/03 04:28:49;;;;;;;;;;;25.50;49.30;;;;;;5055559;28;19913;-65
2022/07/03 04:31:14;;;;;;;;;;;25.50;49.30;;;;;;5055628;28;20082;-64
2022/07/03 04:33:40;;;;;;;;;;;25.50;49.10;;;;;;5055709;28;19927;-65
2022/07/03 04:36:05;;;;;;;;;;;25.60;49.10;;;;;;5055459;28;19909;-65
2022/07/03 04:38:31;;;;;;;;;;;25.60;49.10;;;;;;5055635;28;19916;-66
2022/07/03 04:40:57;;;;;;;;;;;25.50;48.90;;;;;;5055484;28;19919;-66
2022/07/03 04:43:22;;;;;;;;;;;25.60;48.80;;;;;;5055347;28;19909;-65
2022/07/03 04:45:48;;;;;;;;;;;25.60;48.90;;;;;;5055412;28;19909;-66
2022/07/03 04:48:13;;;;;;;;;;;25.60;48.70;;;;;;5055476;28;19919;-66
2022/07/03 04:50:39;;;;;;;;;;;25.60;48.90;;;;;;5055392;28;19916;-67
2022/07/03 04:53:04;;;;;;;;;;;25.60;49.00;;;;;;5055091;28;19917;-64
2022/07/03 04:55:30;;;;;;;;;;;25.60;48.90;;;;;;5055187;28;19948;-65
2022/07/03 04:57:56;;;;;;;;;;;25.60;49.10;;;;;;5055438;28;20268;-64
2022/07/03 05:00:21;;;;;;;;;;;25.70;48.80;;;;;;5055061;28;19909;-65
2022/07/03 05:02:47;;;;;;;;;;;25.60;48.90;;;;;;5055052;28;20444;-62
2022/07/03 05:05:12;;;;;;;;;;;25.70;48.90;;;;;;5055003;28;19936;-64
2022/07/03 05:07:38;;;;;;;;;;;25.70;48.80;;;;;;5054980;28;20004;-62
2022/07/03 05:10:03;;;;;;;;;;;25.80;48.80;;;;;;5054838;28;19909;-63
2022/07/03 05:12:29;;;;;;;;;;;25.80;48.60;;;;;;5054902;28;19971;-65
2022/07/03 05:14:54;;;;;;;;;;;25.90;48.40;;;;;;5054948;28;19913;-65
2022/07/03 05:17:20;;;;;;;;;;;25.90;48.50;;;;;;5054711;28;19912;-63
2022/07/03 05:19:46;;;;;;;;;;;25.80;48.40;;;;;;5054724;28;19913;-64
2022/07/03 05:22:11;;;;;;;;;;;25.90;48.50;;;;;;5053413;28;19913;-63
2022/07/03 05:24:37;;;;;;;;;;;25.90;48.50;;;;;;5054645;28;19913;-67
2022/07/03 05:27:03;;;;;;;;;;;26.00;48.60;;;;;;5054572;28;20361;-64
2022/07/03 05:29:29;;;;;;;;;;;26.00;48.40;;;;;;5054627;28;19920;-66
2022/07/03 05:31:55;;;;;;;;;;;25.90;48.50;;;;;;5054597;28;20285;-66
2022/07/03 05:34:20;;;;;;;;;;;25.90;48.60;;;;;;5056086;28;19958;-65
2022/07/03 05:36:46;;;;;;;;;;;26.00;48.50;;;;;;5054475;28;19952;-66
2022/07/03 05:41:55;;;;;;;;;;;26.30;48.10;;;;;;5054839;28;19919;-66
2022/07/03 05:44:21;;;;;;;;;;;26.70;47.20;;;;;;5054364;28;20280;-66
2022/07/03 05:46:46;;;;;;;;;;;27.10;46.50;;;;;;5054184;28;20272;-62
2022/07/03 05:49:12;;;;;;;;;;;27.40;45.70;;;;;;5054381;28;20292;-62
2022/07/03 05:51:37;;;;;;;;;;;27.70;45.10;;;;;;5054429;28;20014;-63
2022/07/03 05:54:03;;;;;;;;;;;27.90;44.40;;;;;;5055337;28;19917;-64
2022/07/03 05:56:29;;;;;;;;;;;28.00;44.20;;;;;;5055614;28;20373;-61
2022/07/03 05:58:54;;;;;;;;;;;28.20;44.40;;;;;;5053955;28;20011;-62
2022/07/03 06:01:20;;;;;;;;;;;28.40;43.80;;;;;;5054117;28;19917;-62
2022/07/03 06:03:45;;;;;;;;;;;28.50;43.40;;;;;;5054069;28;20032;-65
2022/07/03 06:06:11;;;;;;;;;;;28.80;43.20;;;;;;5053797;28;19954;-64
2022/07/03 06:08:36;;;;;;;;;;;29.10;42.30;;;;;;5053715;28;19916;-63
2022/07/03 06:11:02;;;;;;;;;;;29.30;42.10;;;;;;5054064;28;19909;-63
2022/07/03 06:13:27;;;;;;;;;;;29.40;41.80;;;;;;5053640;28;19917;-62
2022/07/03 06:15:53;;;;;;;;;;;29.40;41.80;;;;;;5053725;28;20024;-61
2022/07/03 06:18:19;;;;;;;;;;;29.70;41.80;;;;;;5053889;28;19909;-62
2022/07/03 06:20:44;;;;;;;;;;;29.80;41.10;;;;;;5053687;28;19909;-61
2022/07/03 06:23:10;;;;;;;;;;;29.90;41.20;;;;;;5053747;28;19917;-64
2022/07/03 06:25:35;;;;;;;;;;;29.80;40.90;;;;;;5053665;28;19908;-61
2022/07/03 06:28:01;;;;;;;;;;;30.00;40.70;;;;;;5053286;28;19917;-60
2022/07/03 06:30:26;;;;;;;;;;;30.10;40.60;;;;;;5053295;28;19928;-60
2022/07/03 06:32:52;;;;;;;;;;;30.10;40.50;;;;;;5052973;28;19917;-61
2022/07/03 06:35:17;;;;;;;;;;;30.10;40.50;;;;;;5053315;28;19912;-66
2022/07/03 06:37:43;;;;;;;;;;;30.30;40.40;;;;;;5039660;28;19917;-62
2022/07/03 06:40:09;;;;;;;;;;;30.50;40.00;;;;;;5032876;28;20347;-61
2022/07/03 06:42:34;;;;;;;;;;;30.70;39.70;;;;;;5032970;28;19913;-61
2022/07/03 06:45:00;;;;;;;;;;;31.00;39.10;;;;;;5033905;28;20409;-63
2022/07/03 06:47:25;;;;;;;;;;;31.00;39.00;;;;;;5032660;28;19909;-61
2022/07/03 06:49:51;;;;;;;;;;;31.10;38.90;;;;;;5032564;28;20380;-63
2022/07/03 06:52:16;;;;;;;;;;;31.10;38.30;;;;;;5043267;28;19913;-61
2022/07/03 06:54:43;;;;;;;;;;;31.20;38.50;;;;;;5052730;28;19909;-64
2022/07/03 06:57:12;;;;;;;;;;;31.10;38.40;;;;;;5052930;28;20004;-62
2022/07/03 06:59:38;;;;;;;;;;;31.20;38.40;;;;;;5052652;28;19912;-62
2022/07/03 07:02:04;;;;;;;;;;;31.30;38.60;;;;;;5052120;28;19959;-60
2022/07/03 07:04:29;;;;;;;;;;;31.20;39.00;;;;;;5051566;28;19916;-59
2022/07/03 07:06:55;;;;;;;;;;;31.40;38.60;;;;;;5051654;28;19992;-67
2022/07/03 07:09:20;;;;;;;;;;;31.40;37.80;;;;;;5051516;28;19963;-63
2022/07/03 07:11:46;;;;;;;;;;;31.50;37.90;;;;;;5048818;28;19921;-63
2022/07/03 07:14:11;;;;;;;;;;;31.60;38.10;;;;;;5051595;28;19956;-58
2022/07/03 07:16:37;;;;;;;;;;;31.70;37.30;;;;;;5051242;28;19916;-61
2022/07/03 07:19:03;;;;;;;;;;;31.70;37.10;;;;;;5052103;28;20436;-61
2022/07/03 07:21:28;;;;;;;;;;;31.80;37.40;;;;;;5052355;28;20254;-62
2022/07/03 07:23:54;;;;;;;;;;;32.00;37.20;;;;;;5053413;28;20343;-62
2022/07/03 07:26:20;;;;;;;;;;;32.10;36.90;;;;;;5053444;28;19909;-60
2022/07/03 07:28:46;;;;;;;;;;;32.20;36.80;;;;;;5052506;28;20364;-60
2022/07/03 07:31:11;;;;;;;;;;;32.30;37.00;;;;;;5052761;28;19935;-60
2022/07/03 07:33:37;;;;;;;;;;;32.30;36.60;;;;;;5050949;28;20357;-58
2022/07/03 07:36:03;;;;;;;;;;;32.30;36.70;;;;;;5050825;28;19909;-64
2022/07/03 07:38:28;;;;;;;;;;;32.40;36.70;;;;;;5040162;28;19917;-59
2022/07/03 07:40:54;;;;;;;;;;;32.40;36.30;;;;;;5036598;28;19917;-59
2022/07/03 07:43:19;;;;;;;;;;;32.40;36.60;;;;;;5050082;28;19909;-62
2022/07/03 07:45:45;;;;;;;;;;;32.50;36.00;;;;;;5050325;28;19923;-60
2022/07/03 07:48:10;;;;;;;;;;;32.60;35.80;;;;;;5048080;28;19917;-59
2022/07/03 07:50:36;;;;;;;;;;;32.60;35.70;;;;;;5050924;28;20292;-59
2022/07/03 07:53:01;;;;;;;;;;;32.70;35.90;;;;;;5050690;28;20008;-60
2022/07/03 07:55:27;;;;;;;;;;;32.70;35.40;;;;;;5050717;28;19917;-67
2022/07/03 07:57:52;;;;;;;;;;;32.70;36.00;;;;;;5049056;28;20280;-68
2022/07/03 08:00:18;;;;;;;;;;;32.70;36.10;;;;;;5048179;28;19963;-60
2022/07/03 08:05:35;;;;;;;;;;;32.70;36.20;;;;;;5048327;28;19939;-63
2022/07/03 08:08:07;;;;;;;;;;;32.60;35.40;;;;;;5050397;28;19919;-64
2022/07/03 08:10:36;;;;;;;;;;;32.70;35.50;;;;;;5050341;28;19917;-62
2022/07/03 08:13:02;;;;;;;;;;;32.70;35.60;;;;;;5050122;28;19924;-65
2022/07/03 08:15:27;;;;;;;;;;;32.70;35.60;;;;;;5050124;28;19924;-65
2022/07/03 08:17:53;;;;;;;;;;;32.80;35.10;;;;;;5049224;28;19912;-60
2022/07/03 08:20:18;;;;;;;;;;;32.90;34.70;;;;;;5042875;28;19919;-62
2022/07/03 08:22:44;;;;;;;;;;;32.90;34.60;;;;;;5034499;28;19913;-68
2022/07/03 08:25:09;;;;;;;;;;;33.00;34.60;;;;;;5032535;28;19996;-60
2022/07/03 08:27:35;;;;;;;;;;;33.00;34.60;;;;;;5031152;28;20004;-62
2022/07/03 08:30:00;;;;;;;;;;;33.00;34.20;;;;;;5030839;28;19929;-61
2022/07/03 08:32:26;;;;;;;;;;;32.90;33.80;;;;;;5043708;28;19964;-61
2022/07/03 08:34:51;;;;;;;;;;;32.90;34.10;;;;;;5051412;28;19908;-60
2022/07/03 08:37:17;;;;;;;;;;;32.90;34.30;;;;;;5051373;28;19912;-64
2022/07/03 08:39:42;;;;;;;;;;;33.00;34.30;;;;;;5051373;28;19923;-63
2022/07/03 08:42:10;;;;;;;;;;;33.10;34.10;;;;;;5051350;28;19909;-64
2022/07/03 08:44:37;;;;;;;;;;;33.10;34.10;;;;;;5050964;28;19960;-63
2022/07/03 08:47:03;;;;;;;;;;;33.00;34.20;;;;;;5048900;28;19967;-62
2022/07/03 08:49:28;;;;;;;;;;;33.00;34.40;;;;;;5048744;28;19952;-63
2022/07/03 08:51:54;;;;;;;;;;;33.10;34.20;;;;;;5050009;28;19973;-61
2022/07/03 08:54:20;;;;;;;;;;;33.20;34.10;;;;;;5047471;28;19925;-64
2022/07/03 08:56:46;;;;;;;;;;;33.20;34.10;;;;;;5037337;28;19913;-62
2022/07/03 08:59:12;;;;;;;;;;;33.20;34.40;;;;;;5039832;28;19909;-59
2022/07/03 09:01:41;;;;;;;;;;;33.20;34.00;;;;;;5034782;28;19917;-66
2022/07/03 09:04:12;;;;;;;;;;;33.10;34.70;;;;;;5034519;28;20327;-69
2022/07/03 09:06:39;;;;;;;;;;;33.10;34.40;;;;;;5034379;28;19913;-66
2022/07/03 09:09:06;;;;;;;;;;;33.10;34.40;;;;;;5034380;28;19913;-64
2022/07/03 09:11:31;;;;;;;;;;;33.20;34.60;;;;;;5035541;28;20395;-67
2022/07/03 09:13:57;;;;;;;;;;;33.20;34.80;;;;;;5053844;28;19962;-67
2022/07/03 09:16:23;;;;;;;;;;;33.10;36.00;;;;;;5053174;28;19917;-60
2022/07/03 09:18:48;;;;;;;;;;;33.10;38.40;;;;;;5052236;28;20400;-65
2022/07/03 09:21:15;;;;;;;;;;;33.00;39.60;;;;;;5052618;28;19978;-61
2022/07/03 09:23:42;;;;;;;;;;;32.90;40.30;;;;;;5052711;28;20007;-61
2022/07/03 09:26:12;;;;;;;;;;;32.90;40.80;;;;;;5052895;28;20975;-61
2022/07/03 09:28:52;;;;;;;;;;;32.80;40.60;;;;;;5050999;28;20007;-63
2022/07/03 09:31:25;;;;;;;;;;;32.80;40.80;;;;;;5051298;28;19920;-60
2022/07/03 09:33:52;;;;;;;;;;;32.80;40.50;;;;;;5051945;28;19928;-58
2022/07/03 09:36:18;;;;;;;;;;;32.80;40.30;;;;;;5052600;28;19913;-58
2022/07/03 09:38:47;;;;;;;;;;;32.70;40.60;;;;;;5052895;28;20253;-59
2022/07/03 09:41:12;;;;;;;;;;;32.70;40.50;;;;;;5053340;28;19976;-64
2022/07/03 09:43:42;;;;;;;;;;;32.50;39.60;;;;;;5053766;28;20322;-58
2022/07/03 09:46:08;;;;;;;;;;;32.40;39.30;;;;;;5053410;28;20364;-62
2022/07/03 09:48:34;;;;;;;;;;;32.30;39.70;;;;;;5053205;28;19909;-65
2022/07/03 09:51:10;;;;;;;;;;;32.40;38.10;;;;;;5053151;28;20007;-69
2022/07/03 09:53:48;;;;;;;;;;;32.20;38.90;;;;;;5051452;28;19928;-61
2022/07/03 09:56:13;;;;;;;;;;;32.10;38.40;;;;;;5051125;28;19908;-65
2022/07/03 09:58:39;;;;;;;;;;;32.20;38.10;;;;;;5053332;28;19912;-58
2022/07/03 10:01:20;;;;;;;;;;;32.20;38.10;;;;;;5053287;28;20047;-60
2022/07/03 10:03:48;;;;;;;;;;;32.20;38.30;;;;;;5051128;28;20422;-61
2022/07/03 10:06:14;;;;;;;;;;;32.10;39.10;;;;;;5051892;28;20356;-64
2022/07/03 10:08:41;;;;;;;;;;;32.00;39.90;;;;;;5050925;28;19920;-63
2022/07/03 10:11:07;;;;;;;;;;;32.00;39.80;;;;;;5051194;28;19915;-61
2022/07/03 10:13:33;;;;;;;;;;;32.00;38.20;;;;;;5039922;28;19925;-61
2022/07/03 10:15:58;;;;;;;;;;;31.90;38.30;;;;;;5043952;28;19921;-60
2022/07/03 10:18:27;;;;;;;;;;;31.90;38.80;;;;;;5044144;28;19909;-60
2022/07/03 10:20:56;;;;;;;;;;;32.00;37.70;;;;;;5046049;28;19999;-60
2022/07/03 10:23:22;;;;;;;;;;;32.00;37.80;;;;;;5045614;28;19909;-62
2022/07/03 10:25:48;;;;;;;;;;;31.90;37.90;;;;;;5041165;28;19912;-60
2022/07/03 10:28:14;;;;;;;;;;;31.90;37.70;;;;;;5052701;28;20395;-62
2022/07/03 10:30:42;;;;;;;;;;;31.90;38.00;;;;;;5052518;28;20328;-59
2022/07/03 10:33:08;;;;;;;;;;;32.00;38.00;;;;;;5052306;28;19921;-62
2022/07/03 10:35:38;;;;;;;;;;;32.00;37.70;;;;;;5052320;28;19931;-62
2022/07/03 10:38:07;;;;;;;;;;;32.00;38.10;;;;;;5052357;28;19935;-62
2022/07/03 10:46:24;;;;;;;;;;;32.20;37.50;;;;;;5052026;28;19924;-61
2022/07/03 10:48:51;;;;;;;;;;;32.20;38.30;;;;;;5051642;28;19909;-64
2022/07/03 10:51:16;;;;;;;;;;;32.20;39.10;;;;;;5050384;28;19913;-61
2022/07/03 10:53:42;;;;;;;;;;;32.20;38.80;;;;;;5050901;28;20284;-60
2022/07/03 10:56:07;;;;;;;;;;;32.40;39.30;;;;;;5051838;28;19992;-62
2022/07/03 10:58:53;;;;;;;;;;;32.50;38.70;;;;;;5051608;28;19916;-60
2022/07/03 11:01:28;;;;;;;;;;;32.50;38.50;;;;;;5051620;28;19958;-64
2022/07/03 11:04:00;;;;;;;;;;;32.50;38.70;;;;;;5037768;28;19909;-63
2022/07/03 11:06:44;;;;;;;;;;;32.50;39.30;;;;;;5033484;28;19995;-61
2022/07/03 11:09:11;;;;;;;;;;;32.50;39.00;;;;;;5032126;28;19916;-60
2022/07/03 11:11:55;;;;;;;;;;;32.60;39.20;;;;;;5037659;28;19909;-62
2022/07/03 11:14:22;;;;;;;;;;;32.50;38.80;;;;;;5035520;28;19983;-61
2022/07/03 11:16:47;;;;;;;;;;;32.40;39.80;;;;;;5033788;28;19920;-61
2022/07/03 11:19:13;;;;;;;;;;;32.30;39.10;;;;;;5045378;28;19909;-61
2022/07/03 11:21:42;;;;;;;;;;;32.30;39.00;;;;;;5032164;28;20364;-60
2022/07/03 11:24:19;;;;;;;;;;;32.30;38.90;;;;;;5047574;28;19909;-59
2022/07/03 11:26:44;;;;;;;;;;;32.20;40.30;;;;;;5051745;28;20319;-62
2022/07/03 11:29:26;;;;;;;;;;;32.10;40.10;;;;;;5051569;28;19974;-59
2022/07/03 11:31:52;;;;;;;;;;;32.10;40.70;;;;;;5041149;28;19917;-62
2022/07/03 11:34:21;;;;;;;;;;;32.20;41.60;;;;;;5051780;28;19913;-60
2022/07/03 11:36:47;;;;;;;;;;;32.20;41.80;;;;;;5039551;28;19913;-60
2022/07/03 11:39:12;;;;;;;;;;;32.20;40.40;;;;;;5038669;28;20384;-61
2022/07/03 11:41:38;;;;;;;;;;;32.30;40.40;;;;;;5045839;28;20375;-63
2022/07/03 11:44:07;;;;;;;;;;;32.30;40.90;;;;;;5031885;28;19920;-64
2022/07/03 11:46:34;;;;;;;;;;;32.30;40.90;;;;;;5049434;28;20272;-62
2022/07/03 11:49:09;;;;;;;;;;;32.30;39.80;;;;;;5034534;28;19913;-62
2022/07/03 11:51:35;;;;;;;;;;;32.30;39.40;;;;;;5033659;28;19916;-60
2022/07/03 11:54:01;;;;;;;;;;;32.30;40.80;;;;;;5034582;28;19917;-61
2022/07/03 11:56:27;;;;;;;;;;;32.30;40.30;;;;;;5037208;28;20390;-61
2022/07/03 11:59:00;;;;;;;;;;;32.40;39.40;;;;;;5034954;28;19996;-64
2022/07/03 12:01:26;;;;;;;;;;;32.40;40.60;;;;;;5036141;28;19909;-61
2022/07/03 12:03:52;;;;;;;;;;;32.40;40.60;;;;;;5041279;28;20379;-61
2022/07/03 12:06:18;;;;;;;;;;;32.30;40.20;;;;;;5034098;28;19920;-61
2022/07/03 12:08:46;;;;;;;;;;;32.20;40.10;;;;;;5033710;28;19913;-61
2022/07/03 12:11:12;;;;;;;;;;;32.20;40.50;;;;;;5033669;28;20376;-62
2022/07/03 12:13:38;;;;;;;;;;;32.30;40.70;;;;;;5036007;28;19921;-59
2022/07/03 12:16:05;;;;;;;;;;;32.30;39.90;;;;;;5036749;28;19982;-60
2022/07/03 12:18:41;;;;;;;;;;;32.20;40.00;;;;;;5035776;28;19917;-60
2022/07/03 12:21:07;;;;;;;;;;;32.20;40.10;;;;;;5033126;28;19929;-60
2022/07/03 12:23:40;;;;;;;;;;;32.20;40.90;;;;;;5033220;28;19917;-61
2022/07/03 12:26:05;;;;;;;;;;;32.20;40.60;;;;;;5039362;28;19913;-60
2022/07/03 12:28:31;;;;;;;;;;;32.20;40.60;;;;;;5039236;28;20331;-61
2022/07/03 12:30:56;;;;;;;;;;;32.30;40.20;;;;;;5041020;28;19951;-60
2022/07/03 12:33:22;;;;;;;;;;;32.40;40.00;;;;;;5038382;28;19917;-61
2022/07/03 12:36:01;;;;;;;;;;;32.40;40.10;;;;;;5046383;28;19913;-61
2022/07/03 12:38:30;;;;;;;;;;;32.30;40.50;;;;;;5048117;28;19940;-63
2022/07/03 12:41:03;;;;;;;;;;;32.30;40.00;;;;;;5052419;28;20379;-61
2022/07/03 12:43:35;;;;;;;;;;;32.20;39.60;;;;;;5041577;28;20324;-63
2022/07/03 12:46:01;;;;;;;;;;;32.20;40.70;;;;;;5038796;28;20007;-64
2022/07/03 12:48:26;;;;;;;;;;;32.30;40.90;;;;;;5054058;28;20023;-65
2022/07/03 12:50:54;;;;;;;;;;;32.30;40.70;;;;;;5054561;28;19958;-63
2022/07/03 12:53:27;;;;;;;;;;;32.30;41.10;;;;;;5036853;28;20044;-64
2022/07/03 12:55:52;;;;;;;;;;;32.30;42.30;;;;;;5037321;28;19909;-64
2022/07/03 13:01:06;;;;;;;;;;;32.30;44.40;;;;;;5037868;28;19916;-65
2022/07/03 13:03:34;;;;;;;;;;;32.30;43.90;;;;;;5035179;28;19909;-59
2022/07/03 13:06:00;;;;;;;;;;;32.20;43.30;;;;;;5036840;28;19917;-68
2022/07/03 13:08:26;;;;;;;;;;;32.10;43.60;;;;;;5033874;28;19963;-60
2022/07/03 13:10:55;;;;;;;;;;;32.30;42.90;;;;;;5033893;28;19956;-61
2022/07/03 13:13:21;;;;;;;;;;;32.20;42.50;;;;;;5033526;28;20411;-68
2022/07/03 13:15:46;;;;;;;;;;;32.20;43.10;;;;;;5033747;28;19967;-62
2022/07/03 13:18:12;;;;;;;;;;;32.30;42.70;;;;;;5033533;28;19917;-60
2022/07/03 13:20:37;;;;;;;;;;;32.30;42.00;;;;;;5033586;28;19909;-61
2022/07/03 13:23:04;;;;;;;;;;;32.30;43.20;;;;;;5033542;28;19909;-59
2022/07/03 13:25:30;;;;;;;;;;;32.20;44.40;;;;;;5033840;28;19921;-62
2022/07/03 13:28:14;;;;;;;;;;;32.20;44.60;;;;;;5033401;28;20363;-63
2022/07/03 13:30:40;;;;;;;;;;;32.20;44.20;;;;;;5033348;28;19925;-60
2022/07/03 13:33:07;;;;;;;;;;;32.00;43.60;;;;;;5033396;28;19925;-63
2022/07/03 13:35:32;;;;;;;;;;;31.80;44.90;;;;;;5033063;28;20379;-62
2022/07/03 13:37:58;;;;;;;;;;;31.80;46.30;;;;;;5033376;28;19920;-59
2022/07/03 13:40:24;;;;;;;;;;;31.90;47.10;;;;;;5033167;28;19909;-59
2022/07/03 13:42:49;;;;;;;;;;;32.00;46.30;;;;;;5032265;28;19913;-60
2022/07/03 13:45:15;;;;;;;;;;;32.00;45.50;;;;;;5034637;28;19909;-63
2022/07/03 13:47:40;;;;;;;;;;;32.00;45.90;;;;;;5037502;28;19927;-63
2022/07/03 13:50:06;;;;;;;;;;;32.10;45.90;;;;;;5050064;28;19936;-65
2022/07/03 13:52:32;;;;;;;;;;;32.00;44.50;;;;;;5049943;28;19921;-62
2022/07/03 13:54:57;;;;;;;;;;;31.90;45.20;;;;;;5045450;28;20411;-66
2022/07/03 13:57:23;;;;;;;;;;;32.00;45.20;;;;;;5043539;28;20003;-68
2022/07/03 13:59:48;;;;;;;;;;;32.00;45.10;;;;;;5042708;28;20549;-68
2022/07/03 14:02:15;;;;;;;;;;;32.00;44.90;;;;;;5041641;28;19913;-66
2022/07/03 14:04:40;;;;;;;;;;;32.10;44.50;;;;;;5034104;28;20420;-71
2022/07/03 14:07:06;;;;;;;;;;;32.10;43.90;;;;;;5032804;28;19913;-62
2022/07/03 14:09:31;;;;;;;;;;;32.00;43.60;;;;;;5035059;28;19913;-66
2022/07/03 14:11:57;;;;;;;;;;;31.90;44.40;;;;;;5035185;28;19964;-62
2022/07/03 14:14:22;;;;;;;;;;;31.90;44.40;;;;;;5035810;28;20404;-66
2022/07/03 14:16:48;;;;;;;;;;;31.90;44.40;;;;;;5035262;28;19924;-65
2022/07/03 14:19:13;;;;;;;;;;;31.90;43.40;;;;;;5035275;28;19937;-66
2022/07/03 14:21:39;;;;;;;;;;;32.00;42.70;;;;;;5035323;28;19913;-68
2022/07/03 14:24:05;;;;;;;;;;;32.00;42.30;;;;;;5036863;28;19912;-67
2022/07/03 14:34:43;;;;;;;;;;;32.10;42.00;;;;;;5036204;28;19920;-63
2022/07/03 14:37:08;;;;;;;;;;;32.20;42.60;;;;;;5032538;28;20324;-66
2022/07/03 14:39:35;;;;;;;;;;;32.20;41.90;;;;;;5032175;28;20369;-66